sensor_id;sensor_type;location;lat;lon;timestamp;P1;durP1;ratioP1;P2;durP2;ratioP2
23376;SDS011;14353;46.070;13.222;2024-01-25T00:01:44;12.38;;;10.32;;
23376;SDS011;14353;46.070;13.222;2024-01-25T00:04:10;11.68;;;9.85;;
23376;SDS011;14353;46.070;13.222;2024-01-25T00:06:36;11.05;;;9.75;;
23376;SDS011;14353;46.070;13.222;2024-01-25T00:09:02;12.15;;;10.40;;
23376;SDS011;14353;46.070;13.222;2024-01-25T00:11:29;11.40;;;9.50;;
23376;SDS011;14353;46.070;13.222;2024-01-25T00:13:56;11.82;;;10.00;;
23376;SDS011;14353;46.070;13.222;2024-01-25T00:16:22;11.73;;;9.45;;
23376;SDS011;14353;46.070;13.222;2024-01-25T00:18:48;12.88;;;10.07;;
23376;SDS011;14353;46.070;13.222;2024-01-25T00:21:14;11.55;;;9.95;;
23376;SDS011;14353;46.070;13.222;2024-01-25T00:23:39;11.48;;;9.60;;
23376;SDS011;14353;46.070;13.222;2024-01-25T00:26:05;12.38;;;10.00;;
23376;SDS011;14353;46.070;13.222;2024-01-25T00:28:31;13.70;;;10.80;;
23376;SDS011;14353;46.070;13.222;2024-01-25T00:30:58;11.30;;;10.10;;
23376;SDS011;14353;46.070;13.222;2024-01-25T00:33:24;11.27;;;9.40;;
23376;SDS011;14353;46.070;13.222;2024-01-25T00:35:50;10.85;;;9.48;;
23376;SDS011;14353;46.070;13.222;2024-01-25T00:38:16;11.45;;;9.07;;
23376;SDS011;14353;46.070;13.222;2024-01-25T00:40:42;11.70;;;10.05;;
23376;SDS011;14353;46.070;13.222;2024-01-25T00:43:08;11.48;;;9.52;;
23376;SDS011;14353;46.070;13.222;2024-01-25T00:45:34;10.80;;;9.32;;
23376;SDS011;14353;46.070;13.222;2024-01-25T00:48:00;10.68;;;9.45;;
23376;SDS011;14353;46.070;13.222;2024-01-25T00:50:26;11.82;;;9.25;;
23376;SDS011;14353;46.070;13.222;2024-01-25T00:52:52;11.05;;;9.65;;
23376;SDS011;14353;46.070;13.222;2024-01-25T00:55:18;10.65;;;9.52;;
23376;SDS011;14353;46.070;13.222;2024-01-25T00:57:44;11.50;;;9.70;;
23376;SDS011;14353;46.070;13.222;2024-01-25T01:00:10;10.70;;;9.48;;
23376;SDS011;14353;46.070;13.222;2024-01-25T01:02:41;12.20;;;9.45;;
23376;SDS011;14353;46.070;13.222;2024-01-25T01:05:09;11.40;;;9.30;;
23376;SDS011;14353;46.070;13.222;2024-01-25T01:07:37;9.85;;;8.77;;
23376;SDS011;14353;46.070;13.222;2024-01-25T01:10:05;10.82;;;8.80;;
23376;SDS011;14353;46.070;13.222;2024-01-25T01:12:32;11.65;;;9.45;;
23376;SDS011;14353;46.070;13.222;2024-01-25T01:14:58;11.35;;;9.18;;
23376;SDS011;14353;46.070;13.222;2024-01-25T01:17:23;11.02;;;9.43;;
23376;SDS011;14353;46.070;13.222;2024-01-25T01:19:49;10.63;;;9.02;;
23376;SDS011;14353;46.070;13.222;2024-01-25T01:22:15;11.77;;;9.35;;
23376;SDS011;14353;46.070;13.222;2024-01-25T01:24:40;10.40;;;9.27;;
23376;SDS011;14353;46.070;13.222;2024-01-25T01:27:06;9.88;;;8.88;;
23376;SDS011;14353;46.070;13.222;2024-01-25T01:29:32;12.05;;;9.00;;
23376;SDS011;14353;46.070;13.222;2024-01-25T01:31:57;10.13;;;9.02;;
23376;SDS011;14353;46.070;13.222;2024-01-25T01:34:23;10.43;;;8.68;;
23376;SDS011;14353;46.070;13.222;2024-01-25T01:36:49;10.65;;;8.88;;
23376;SDS011;14353;46.070;13.222;2024-01-25T01:39:15;11.68;;;8.93;;
23376;SDS011;14353;46.070;13.222;2024-01-25T01:41:41;10.32;;;8.70;;
23376;SDS011;14353;46.070;13.222;2024-01-25T01:44:06;9.73;;;8.68;;
23376;SDS011;14353;46.070;13.222;2024-01-25T01:46:33;10.75;;;8.55;;
23376;SDS011;14353;46.070;13.222;2024-01-25T01:49:01;10.20;;;8.60;;
23376;SDS011;14353;46.070;13.222;2024-01-25T01:51:28;9.90;;;8.63;;
23376;SDS011;14353;46.070;13.222;2024-01-25T01:53:56;9.85;;;8.50;;
23376;SDS011;14353;46.070;13.222;2024-01-25T01:56:24;10.95;;;8.40;;
23376;SDS011;14353;46.070;13.222;2024-01-25T01:58:54;10.25;;;9.15;;
23376;SDS011;14353;46.070;13.222;2024-01-25T02:01:24;9.30;;;8.30;;
23376;SDS011;14353;46.070;13.222;2024-01-25T02:03:51;9.65;;;8.60;;
23376;SDS011;14353;46.070;13.222;2024-01-25T02:06:19;9.55;;;8.20;;
23376;SDS011;14353;46.070;13.222;2024-01-25T02:08:47;10.43;;;8.73;;
23376;SDS011;14353;46.070;13.222;2024-01-25T02:11:13;9.57;;;8.40;;
23376;SDS011;14353;46.070;13.222;2024-01-25T02:13:39;9.90;;;8.77;;
23376;SDS011;14353;46.070;13.222;2024-01-25T02:16:05;8.93;;;8.02;;
23376;SDS011;14353;46.070;13.222;2024-01-25T02:18:33;10.73;;;8.32;;
23376;SDS011;14353;46.070;13.222;2024-01-25T02:20:58;9.90;;;8.55;;
23376;SDS011;14353;46.070;13.222;2024-01-25T02:23:24;9.20;;;7.90;;
23376;SDS011;14353;46.070;13.222;2024-01-25T02:25:50;10.90;;;8.75;;
23376;SDS011;14353;46.070;13.222;2024-01-25T02:28:16;9.50;;;8.45;;
23376;SDS011;14353;46.070;13.222;2024-01-25T02:30:42;9.38;;;8.38;;
23376;SDS011;14353;46.070;13.222;2024-01-25T02:33:07;9.70;;;8.43;;
23376;SDS011;14353;46.070;13.222;2024-01-25T02:35:33;11.07;;;8.57;;
23376;SDS011;14353;46.070;13.222;2024-01-25T02:37:59;9.45;;;8.25;;
23376;SDS011;14353;46.070;13.222;2024-01-25T02:40:25;9.13;;;8.07;;
23376;SDS011;14353;46.070;13.222;2024-01-25T02:42:50;8.90;;;7.80;;
23376;SDS011;14353;46.070;13.222;2024-01-25T02:45:16;8.75;;;7.63;;
23376;SDS011;14353;46.070;13.222;2024-01-25T02:47:42;8.93;;;7.85;;
23376;SDS011;14353;46.070;13.222;2024-01-25T02:50:08;9.32;;;7.78;;
23376;SDS011;14353;46.070;13.222;2024-01-25T02:52:34;9.40;;;8.25;;
23376;SDS011;14353;46.070;13.222;2024-01-25T02:55:00;8.60;;;7.65;;
23376;SDS011;14353;46.070;13.222;2024-01-25T02:57:26;8.65;;;7.75;;
23376;SDS011;14353;46.070;13.222;2024-01-25T02:59:51;9.10;;;7.70;;
23376;SDS011;14353;46.070;13.222;2024-01-25T03:02:17;9.00;;;8.00;;
23376;SDS011;14353;46.070;13.222;2024-01-25T03:04:44;8.43;;;7.53;;
23376;SDS011;14353;46.070;13.222;2024-01-25T03:07:10;8.95;;;7.97;;
23376;SDS011;14353;46.070;13.222;2024-01-25T03:09:36;9.10;;;7.65;;
23376;SDS011;14353;46.070;13.222;2024-01-25T03:12:02;9.68;;;8.20;;
23376;SDS011;14353;46.070;13.222;2024-01-25T03:14:28;8.88;;;7.57;;
23376;SDS011;14353;46.070;13.222;2024-01-25T03:16:53;8.57;;;7.65;;
23376;SDS011;14353;46.070;13.222;2024-01-25T03:19:19;9.13;;;7.47;;
23376;SDS011;14353;46.070;13.222;2024-01-25T03:21:45;9.15;;;7.40;;
23376;SDS011;14353;46.070;13.222;2024-01-25T03:24:11;8.65;;;7.35;;
23376;SDS011;14353;46.070;13.222;2024-01-25T03:26:36;7.97;;;7.18;;
23376;SDS011;14353;46.070;13.222;2024-01-25T03:29:02;8.32;;;7.45;;
23376;SDS011;14353;46.070;13.222;2024-01-25T03:31:28;9.38;;;7.85;;
23376;SDS011;14353;46.070;13.222;2024-01-25T03:33:53;7.78;;;6.95;;
23376;SDS011;14353;46.070;13.222;2024-01-25T03:36:19;7.90;;;7.10;;
23376;SDS011;14353;46.070;13.222;2024-01-25T03:38:45;8.00;;;7.20;;
23376;SDS011;14353;46.070;13.222;2024-01-25T03:41:11;9.23;;;7.28;;
23376;SDS011;14353;46.070;13.222;2024-01-25T03:43:37;8.13;;;7.32;;
23376;SDS011;14353;46.070;13.222;2024-01-25T03:46:02;8.48;;;7.20;;
23376;SDS011;14353;46.070;13.222;2024-01-25T03:48:28;7.53;;;6.63;;
23376;SDS011;14353;46.070;13.222;2024-01-25T03:50:55;8.43;;;7.53;;
23376;SDS011;14353;46.070;13.222;2024-01-25T03:53:22;7.70;;;6.75;;
23376;SDS011;14353;46.070;13.222;2024-01-25T03:55:48;8.32;;;7.13;;
23376;SDS011;14353;46.070;13.222;2024-01-25T03:58:14;8.50;;;7.10;;
23376;SDS011;14353;46.070;13.222;2024-01-25T04:00:41;8.90;;;7.57;;
23376;SDS011;14353;46.070;13.222;2024-01-25T04:03:07;7.97;;;6.95;;
23376;SDS011;14353;46.070;13.222;2024-01-25T04:05:33;7.60;;;6.78;;
23376;SDS011;14353;46.070;13.222;2024-01-25T04:07:59;6.93;;;6.22;;
23376;SDS011;14353;46.070;13.222;2024-01-25T04:10:24;7.03;;;6.32;;
23376;SDS011;14353;46.070;13.222;2024-01-25T04:12:50;8.10;;;7.03;;
23376;SDS011;14353;46.070;13.222;2024-01-25T04:15:16;7.88;;;7.07;;
23376;SDS011;14353;46.070;13.222;2024-01-25T04:17:42;7.88;;;6.65;;
23376;SDS011;14353;46.070;13.222;2024-01-25T04:20:09;7.78;;;6.30;;
23376;SDS011;14353;46.070;13.222;2024-01-25T04:22:35;8.05;;;6.60;;
23376;SDS011;14353;46.070;13.222;2024-01-25T04:25:01;7.60;;;6.30;;
23376;SDS011;14353;46.070;13.222;2024-01-25T04:27:27;6.93;;;6.25;;
23376;SDS011;14353;46.070;13.222;2024-01-25T04:29:53;7.20;;;6.50;;
23376;SDS011;14353;46.070;13.222;2024-01-25T04:32:19;7.68;;;6.85;;
23376;SDS011;14353;46.070;13.222;2024-01-25T04:34:45;8.30;;;6.63;;
23376;SDS011;14353;46.070;13.222;2024-01-25T04:37:13;7.30;;;6.60;;
23376;SDS011;14353;46.070;13.222;2024-01-25T04:39:39;7.40;;;6.45;;
23376;SDS011;14353;46.070;13.222;2024-01-25T04:42:04;7.13;;;6.43;;
23376;SDS011;14353;46.070;13.222;2024-01-25T04:44:30;7.65;;;6.68;;
23376;SDS011;14353;46.070;13.222;2024-01-25T04:46:56;7.22;;;6.43;;
23376;SDS011;14353;46.070;13.222;2024-01-25T04:49:22;8.55;;;6.68;;
23376;SDS011;14353;46.070;13.222;2024-01-25T04:51:48;7.38;;;6.32;;
23376;SDS011;14353;46.070;13.222;2024-01-25T04:54:14;7.10;;;6.40;;
23376;SDS011;14353;46.070;13.222;2024-01-25T04:56:41;7.25;;;6.43;;
23376;SDS011;14353;46.070;13.222;2024-01-25T04:59:07;6.70;;;5.95;;
23376;SDS011;14353;46.070;13.222;2024-01-25T05:01:33;6.72;;;6.03;;
23376;SDS011;14353;46.070;13.222;2024-01-25T05:03:58;7.05;;;6.35;;
23376;SDS011;14353;46.070;13.222;2024-01-25T05:06:24;7.10;;;5.95;;
23376;SDS011;14353;46.070;13.222;2024-01-25T05:08:50;6.65;;;5.95;;
23376;SDS011;14353;46.070;13.222;2024-01-25T05:11:16;7.13;;;6.40;;
23376;SDS011;14353;46.070;13.222;2024-01-25T05:13:42;7.03;;;6.07;;
23376;SDS011;14353;46.070;13.222;2024-01-25T05:16:08;6.57;;;5.90;;
23376;SDS011;14353;46.070;13.222;2024-01-25T05:18:34;7.10;;;6.40;;
23376;SDS011;14353;46.070;13.222;2024-01-25T05:20:59;6.47;;;5.50;;
23376;SDS011;14353;46.070;13.222;2024-01-25T05:23:25;6.78;;;5.90;;
23376;SDS011;14353;46.070;13.222;2024-01-25T05:25:51;6.97;;;6.22;;
23376;SDS011;14353;46.070;13.222;2024-01-25T05:28:17;6.68;;;5.55;;
23376;SDS011;14353;46.070;13.222;2024-01-25T05:30:43;6.68;;;6.03;;
23376;SDS011;14353;46.070;13.222;2024-01-25T05:33:09;6.38;;;5.78;;
23376;SDS011;14353;46.070;13.222;2024-01-25T05:35:35;7.47;;;5.97;;
23376;SDS011;14353;46.070;13.222;2024-01-25T05:38:00;6.93;;;6.13;;
23376;SDS011;14353;46.070;13.222;2024-01-25T05:40:27;6.75;;;5.97;;
23376;SDS011;14353;46.070;13.222;2024-01-25T05:42:52;6.07;;;5.40;;
23376;SDS011;14353;46.070;13.222;2024-01-25T05:45:18;6.43;;;5.72;;
23376;SDS011;14353;46.070;13.222;2024-01-25T05:47:46;6.03;;;5.40;;
23376;SDS011;14353;46.070;13.222;2024-01-25T05:50:12;5.53;;;4.97;;
23376;SDS011;14353;46.070;13.222;2024-01-25T05:52:38;6.32;;;5.45;;
23376;SDS011;14353;46.070;13.222;2024-01-25T05:55:04;6.10;;;5.50;;
23376;SDS011;14353;46.070;13.222;2024-01-25T05:57:31;7.82;;;5.65;;
23376;SDS011;14353;46.070;13.222;2024-01-25T05:59:57;6.60;;;5.88;;
23376;SDS011;14353;46.070;13.222;2024-01-25T06:02:23;7.45;;;5.97;;
23376;SDS011;14353;46.070;13.222;2024-01-25T06:04:48;6.32;;;5.72;;
23376;SDS011;14353;46.070;13.222;2024-01-25T06:07:14;6.07;;;5.28;;
23376;SDS011;14353;46.070;13.222;2024-01-25T06:09:40;6.40;;;5.80;;
23376;SDS011;14353;46.070;13.222;2024-01-25T06:12:06;5.85;;;5.25;;
23376;SDS011;14353;46.070;13.222;2024-01-25T06:14:32;5.93;;;5.32;;
23376;SDS011;14353;46.070;13.222;2024-01-25T06:16:57;5.85;;;5.18;;
23376;SDS011;14353;46.070;13.222;2024-01-25T06:19:23;5.80;;;5.20;;
23376;SDS011;14353;46.070;13.222;2024-01-25T06:21:49;5.88;;;5.25;;
23376;SDS011;14353;46.070;13.222;2024-01-25T06:24:15;5.57;;;5.07;;
23376;SDS011;14353;46.070;13.222;2024-01-25T06:26:41;6.38;;;5.32;;
23376;SDS011;14353;46.070;13.222;2024-01-25T06:29:07;5.88;;;5.20;;
23376;SDS011;14353;46.070;13.222;2024-01-25T06:31:32;5.75;;;5.15;;
23376;SDS011;14353;46.070;13.222;2024-01-25T06:34:05;5.57;;;5.07;;
23376;SDS011;14353;46.070;13.222;2024-01-25T06:36:30;5.68;;;5.00;;
23376;SDS011;14353;46.070;13.222;2024-01-25T06:38:56;5.88;;;5.28;;
23376;SDS011;14353;46.070;13.222;2024-01-25T06:41:22;6.05;;;5.43;;
23376;SDS011;14353;46.070;13.222;2024-01-25T06:43:47;6.03;;;5.38;;
23376;SDS011;14353;46.070;13.222;2024-01-25T06:46:13;5.43;;;4.93;;
23376;SDS011;14353;46.070;13.222;2024-01-25T06:48:39;5.40;;;4.90;;
23376;SDS011;14353;46.070;13.222;2024-01-25T06:51:05;5.88;;;5.25;;
23376;SDS011;14353;46.070;13.222;2024-01-25T06:53:30;5.63;;;4.97;;
23376;SDS011;14353;46.070;13.222;2024-01-25T06:55:56;5.18;;;4.68;;
23376;SDS011;14353;46.070;13.222;2024-01-25T06:58:22;5.20;;;4.68;;
23376;SDS011;14353;46.070;13.222;2024-01-25T07:00:47;6.45;;;5.50;;
23376;SDS011;14353;46.070;13.222;2024-01-25T07:03:13;5.97;;;4.82;;
23376;SDS011;14353;46.070;13.222;2024-01-25T07:05:40;7.53;;;4.80;;
23376;SDS011;14353;46.070;13.222;2024-01-25T07:08:07;6.68;;;5.50;;
23376;SDS011;14353;46.070;13.222;2024-01-25T07:10:39;5.85;;;4.75;;
23376;SDS011;14353;46.070;13.222;2024-01-25T07:13:08;9.50;;;5.28;;
23376;SDS011;14353;46.070;13.222;2024-01-25T07:15:36;7.93;;;5.03;;
23376;SDS011;14353;46.070;13.222;2024-01-25T07:18:03;8.73;;;5.28;;
23376;SDS011;14353;46.070;13.222;2024-01-25T07:20:30;7.50;;;5.00;;
23376;SDS011;14353;46.070;13.222;2024-01-25T07:22:56;6.10;;;4.70;;
23376;SDS011;14353;46.070;13.222;2024-01-25T07:25:22;9.50;;;5.00;;
23376;SDS011;14353;46.070;13.222;2024-01-25T07:27:48;7.97;;;4.95;;
23376;SDS011;14353;46.070;13.222;2024-01-25T07:30:14;6.13;;;4.32;;
23376;SDS011;14353;46.070;13.222;2024-01-25T07:32:43;7.25;;;4.57;;
23376;SDS011;14353;46.070;13.222;2024-01-25T07:35:11;5.93;;;4.65;;
23376;SDS011;14353;46.070;13.222;2024-01-25T07:37:38;5.45;;;4.50;;
23376;SDS011;14353;46.070;13.222;2024-01-25T07:40:06;7.22;;;4.70;;
23376;SDS011;14353;46.070;13.222;2024-01-25T07:42:33;4.72;;;4.22;;
23376;SDS011;14353;46.070;13.222;2024-01-25T07:44:58;6.00;;;4.68;;
23376;SDS011;14353;46.070;13.222;2024-01-25T07:47:24;7.93;;;4.35;;
23376;SDS011;14353;46.070;13.222;2024-01-25T07:49:50;18.27;;;4.95;;
23376;SDS011;14353;46.070;13.222;2024-01-25T07:52:16;5.93;;;4.55;;
23376;SDS011;14353;46.070;13.222;2024-01-25T07:54:42;5.90;;;4.38;;
23376;SDS011;14353;46.070;13.222;2024-01-25T07:57:09;5.32;;;4.32;;
23376;SDS011;14353;46.070;13.222;2024-01-25T07:59:35;5.13;;;4.53;;
23376;SDS011;14353;46.070;13.222;2024-01-25T08:02:01;6.50;;;5.38;;
23376;SDS011;14353;46.070;13.222;2024-01-25T08:04:27;5.93;;;4.13;;
23376;SDS011;14353;46.070;13.222;2024-01-25T08:06:53;10.70;;;5.00;;
23376;SDS011;14353;46.070;13.222;2024-01-25T08:09:18;12.70;;;5.20;;
23376;SDS011;14353;46.070;13.222;2024-01-25T08:11:44;14.52;;;5.10;;
23376;SDS011;14353;46.070;13.222;2024-01-25T08:14:10;11.43;;;5.10;;
23376;SDS011;14353;46.070;13.222;2024-01-25T08:16:37;11.57;;;5.47;;
23376;SDS011;14353;46.070;13.222;2024-01-25T08:19:03;10.10;;;5.10;;
23376;SDS011;14353;46.070;13.222;2024-01-25T08:21:29;9.90;;;4.80;;
23376;SDS011;14353;46.070;13.222;2024-01-25T08:23:55;16.27;;;5.20;;
23376;SDS011;14353;46.070;13.222;2024-01-25T08:26:21;10.27;;;4.57;;
23376;SDS011;14353;46.070;13.222;2024-01-25T08:28:47;11.15;;;6.72;;
23376;SDS011;14353;46.070;13.222;2024-01-25T08:31:12;11.18;;;5.32;;
23376;SDS011;14353;46.070;13.222;2024-01-25T08:33:38;12.85;;;5.18;;
23376;SDS011;14353;46.070;13.222;2024-01-25T08:36:09;12.35;;;5.35;;
23376;SDS011;14353;46.070;13.222;2024-01-25T08:38:35;10.93;;;4.55;;
23376;SDS011;14353;46.070;13.222;2024-01-25T08:41:01;10.05;;;5.07;;
23376;SDS011;14353;46.070;13.222;2024-01-25T08:43:26;9.98;;;4.93;;
23376;SDS011;14353;46.070;13.222;2024-01-25T08:45:52;10.32;;;4.90;;
23376;SDS011;14353;46.070;13.222;2024-01-25T08:48:18;15.93;;;5.25;;
23376;SDS011;14353;46.070;13.222;2024-01-25T08:50:44;9.18;;;5.25;;
23376;SDS011;14353;46.070;13.222;2024-01-25T08:53:10;14.50;;;5.32;;
23376;SDS011;14353;46.070;13.222;2024-01-25T08:55:36;11.80;;;5.53;;
23376;SDS011;14353;46.070;13.222;2024-01-25T08:58:02;17.13;;;5.05;;
23376;SDS011;14353;46.070;13.222;2024-01-25T09:00:28;21.60;;;6.07;;
23376;SDS011;14353;46.070;13.222;2024-01-25T09:02:53;15.52;;;5.38;;
23376;SDS011;14353;46.070;13.222;2024-01-25T09:05:19;28.92;;;5.45;;
23376;SDS011;14353;46.070;13.222;2024-01-25T09:07:46;21.00;;;5.38;;
23376;SDS011;14353;46.070;13.222;2024-01-25T09:10:12;21.45;;;5.95;;
23376;SDS011;14353;46.070;13.222;2024-01-25T09:12:40;18.55;;;5.25;;
23376;SDS011;14353;46.070;13.222;2024-01-25T09:15:06;20.55;;;5.45;;
23376;SDS011;14353;46.070;13.222;2024-01-25T09:17:33;21.58;;;5.85;;
23376;SDS011;14353;46.070;13.222;2024-01-25T09:19:59;17.55;;;6.45;;
23376;SDS011;14353;46.070;13.222;2024-01-25T09:22:25;16.45;;;6.22;;
23376;SDS011;14353;46.070;13.222;2024-01-25T09:24:52;16.25;;;6.65;;
23376;SDS011;14353;46.070;13.222;2024-01-25T09:27:18;12.50;;;6.57;;
23376;SDS011;14353;46.070;13.222;2024-01-25T09:29:44;12.90;;;5.55;;
23376;SDS011;14353;46.070;13.222;2024-01-25T09:32:10;10.38;;;5.70;;
23376;SDS011;14353;46.070;13.222;2024-01-25T09:34:38;13.05;;;6.00;;
23376;SDS011;14353;46.070;13.222;2024-01-25T09:37:04;15.70;;;5.40;;
23376;SDS011;14353;46.070;13.222;2024-01-25T09:39:33;15.82;;;5.85;;
23376;SDS011;14353;46.070;13.222;2024-01-25T09:42:00;13.93;;;5.22;;
23376;SDS011;14353;46.070;13.222;2024-01-25T09:44:28;10.82;;;5.57;;
23376;SDS011;14353;46.070;13.222;2024-01-25T09:46:53;12.18;;;5.10;;
23376;SDS011;14353;46.070;13.222;2024-01-25T09:49:20;9.88;;;5.55;;
23376;SDS011;14353;46.070;13.222;2024-01-25T09:51:46;10.70;;;5.20;;
23376;SDS011;14353;46.070;13.222;2024-01-25T09:54:15;8.13;;;4.43;;
23376;SDS011;14353;46.070;13.222;2024-01-25T09:56:42;11.60;;;4.72;;
23376;SDS011;14353;46.070;13.222;2024-01-25T09:59:07;14.13;;;4.72;;
23376;SDS011;14353;46.070;13.222;2024-01-25T10:01:34;14.55;;;4.88;;
23376;SDS011;14353;46.070;13.222;2024-01-25T10:04:00;16.25;;;6.15;;
23376;SDS011;14353;46.070;13.222;2024-01-25T10:06:26;16.83;;;4.47;;
23376;SDS011;14353;46.070;13.222;2024-01-25T10:08:52;20.17;;;5.15;;
23376;SDS011;14353;46.070;13.222;2024-01-25T10:11:18;16.58;;;4.85;;
23376;SDS011;14353;46.070;13.222;2024-01-25T10:13:45;23.48;;;5.20;;
23376;SDS011;14353;46.070;13.222;2024-01-25T10:16:16;24.15;;;5.18;;
23376;SDS011;14353;46.070;13.222;2024-01-25T10:18:46;18.38;;;6.05;;
23376;SDS011;14353;46.070;13.222;2024-01-25T10:21:12;19.45;;;5.47;;
23376;SDS011;14353;46.070;13.222;2024-01-25T10:23:39;12.77;;;4.82;;
23376;SDS011;14353;46.070;13.222;2024-01-25T10:26:09;11.02;;;5.85;;
23376;SDS011;14353;46.070;13.222;2024-01-25T10:28:34;15.30;;;5.70;;
23376;SDS011;14353;46.070;13.222;2024-01-25T10:31:01;16.75;;;5.80;;
23376;SDS011;14353;46.070;13.222;2024-01-25T10:33:29;10.90;;;6.00;;
23376;SDS011;14353;46.070;13.222;2024-01-25T10:35:55;11.13;;;5.13;;
23376;SDS011;14353;46.070;13.222;2024-01-25T10:38:27;15.75;;;5.82;;
23376;SDS011;14353;46.070;13.222;2024-01-25T10:41:00;15.80;;;5.93;;
23376;SDS011;14353;46.070;13.222;2024-01-25T10:43:27;17.20;;;5.82;;
23376;SDS011;14353;46.070;13.222;2024-01-25T10:45:55;24.20;;;5.47;;
23376;SDS011;14353;46.070;13.222;2024-01-25T10:48:24;17.70;;;5.45;;
23376;SDS011;14353;46.070;13.222;2024-01-25T10:50:55;20.75;;;4.97;;
23376;SDS011;14353;46.070;13.222;2024-01-25T10:53:22;20.15;;;4.50;;
23376;SDS011;14353;46.070;13.222;2024-01-25T10:55:49;22.60;;;4.35;;
23376;SDS011;14353;46.070;13.222;2024-01-25T10:58:15;9.68;;;4.88;;
23376;SDS011;14353;46.070;13.222;2024-01-25T11:00:49;13.48;;;4.50;;
23376;SDS011;14353;46.070;13.222;2024-01-25T11:03:20;13.07;;;4.00;;
23376;SDS011;14353;46.070;13.222;2024-01-25T11:05:50;8.43;;;4.20;;
23376;SDS011;14353;46.070;13.222;2024-01-25T11:08:20;13.40;;;4.40;;
23376;SDS011;14353;46.070;13.222;2024-01-25T11:10:52;17.98;;;4.78;;
23376;SDS011;14353;46.070;13.222;2024-01-25T11:13:28;17.95;;;4.72;;
23376;SDS011;14353;46.070;13.222;2024-01-25T11:15:54;20.92;;;4.57;;
23376;SDS011;14353;46.070;13.222;2024-01-25T11:18:24;18.25;;;4.90;;
23376;SDS011;14353;46.070;13.222;2024-01-25T11:20:51;18.08;;;4.90;;
23376;SDS011;14353;46.070;13.222;2024-01-25T11:23:18;24.23;;;4.80;;
23376;SDS011;14353;46.070;13.222;2024-01-25T11:25:44;18.73;;;4.50;;
23376;SDS011;14353;46.070;13.222;2024-01-25T11:28:12;15.15;;;6.80;;
23376;SDS011;14353;46.070;13.222;2024-01-25T11:30:41;14.00;;;5.70;;
23376;SDS011;14353;46.070;13.222;2024-01-25T11:33:07;14.25;;;4.72;;
23376;SDS011;14353;46.070;13.222;2024-01-25T11:35:34;13.20;;;4.80;;
23376;SDS011;14353;46.070;13.222;2024-01-25T11:38:00;23.25;;;4.85;;
23376;SDS011;14353;46.070;13.222;2024-01-25T11:40:26;20.98;;;5.03;;
23376;SDS011;14353;46.070;13.222;2024-01-25T11:42:53;14.10;;;4.65;;
23376;SDS011;14353;46.070;13.222;2024-01-25T11:45:19;22.10;;;4.72;;
23376;SDS011;14353;46.070;13.222;2024-01-25T11:47:45;16.38;;;5.05;;
23376;SDS011;14353;46.070;13.222;2024-01-25T11:50:11;18.85;;;4.43;;
23376;SDS011;14353;46.070;13.222;2024-01-25T11:52:38;14.93;;;4.57;;
23376;SDS011;14353;46.070;13.222;2024-01-25T11:55:07;17.77;;;4.40;;
23376;SDS011;14353;46.070;13.222;2024-01-25T11:57:37;17.88;;;4.40;;
23376;SDS011;14353;46.070;13.222;2024-01-25T12:00:06;13.82;;;4.03;;
23376;SDS011;14353;46.070;13.222;2024-01-25T12:02:35;16.58;;;4.80;;
23376;SDS011;14353;46.070;13.222;2024-01-25T12:05:02;18.27;;;4.82;;
23376;SDS011;14353;46.070;13.222;2024-01-25T12:07:32;14.68;;;4.57;;
23376;SDS011;14353;46.070;13.222;2024-01-25T12:10:02;11.73;;;3.80;;
23376;SDS011;14353;46.070;13.222;2024-01-25T12:12:29;13.65;;;4.18;;
23376;SDS011;14353;46.070;13.222;2024-01-25T12:15:02;11.50;;;3.75;;
23376;SDS011;14353;46.070;13.222;2024-01-25T12:17:30;14.80;;;3.97;;
23376;SDS011;14353;46.070;13.222;2024-01-25T12:19:56;9.68;;;3.78;;
23376;SDS011;14353;46.070;13.222;2024-01-25T12:22:27;9.65;;;3.83;;
23376;SDS011;14353;46.070;13.222;2024-01-25T12:24:57;8.88;;;3.83;;
23376;SDS011;14353;46.070;13.222;2024-01-25T12:27:25;12.38;;;3.75;;
23376;SDS011;14353;46.070;13.222;2024-01-25T12:29:52;10.93;;;3.78;;
23376;SDS011;14353;46.070;13.222;2024-01-25T12:32:22;12.85;;;3.90;;
23376;SDS011;14353;46.070;13.222;2024-01-25T12:34:58;10.05;;;3.53;;
23376;SDS011;14353;46.070;13.222;2024-01-25T12:37:28;7.13;;;3.40;;
23376;SDS011;14353;46.070;13.222;2024-01-25T12:39:54;8.93;;;3.38;;
23376;SDS011;14353;46.070;13.222;2024-01-25T12:42:20;10.77;;;3.33;;
23376;SDS011;14353;46.070;13.222;2024-01-25T12:44:47;9.88;;;4.10;;
23376;SDS011;14353;46.070;13.222;2024-01-25T12:47:13;9.93;;;3.50;;
23376;SDS011;14353;46.070;13.222;2024-01-25T12:49:40;16.15;;;4.28;;
23376;SDS011;14353;46.070;13.222;2024-01-25T12:52:06;11.60;;;4.00;;
23376;SDS011;14353;46.070;13.222;2024-01-25T12:54:36;16.70;;;4.97;;
23376;SDS011;14353;46.070;13.222;2024-01-25T12:57:03;13.45;;;4.35;;
23376;SDS011;14353;46.070;13.222;2024-01-25T12:59:30;16.70;;;4.60;;
23376;SDS011;14353;46.070;13.222;2024-01-25T13:01:56;13.35;;;4.63;;
23376;SDS011;14353;46.070;13.222;2024-01-25T13:04:22;13.15;;;4.07;;
23376;SDS011;14353;46.070;13.222;2024-01-25T13:06:48;11.57;;;4.57;;
23376;SDS011;14353;46.070;13.222;2024-01-25T13:09:16;9.40;;;3.92;;
23376;SDS011;14353;46.070;13.222;2024-01-25T13:11:41;8.82;;;3.78;;
23376;SDS011;14353;46.070;13.222;2024-01-25T13:14:07;9.40;;;4.20;;
23376;SDS011;14353;46.070;13.222;2024-01-25T13:16:33;16.08;;;4.40;;
23376;SDS011;14353;46.070;13.222;2024-01-25T13:18:59;13.30;;;3.88;;
23376;SDS011;14353;46.070;13.222;2024-01-25T13:21:24;12.52;;;3.90;;
23376;SDS011;14353;46.070;13.222;2024-01-25T13:23:51;13.13;;;3.70;;
23376;SDS011;14353;46.070;13.222;2024-01-25T13:26:17;8.30;;;3.50;;
23376;SDS011;14353;46.070;13.222;2024-01-25T13:28:43;10.93;;;3.65;;
23376;SDS011;14353;46.070;13.222;2024-01-25T13:31:08;9.45;;;3.35;;
23376;SDS011;14353;46.070;13.222;2024-01-25T13:33:34;8.88;;;3.78;;
23376;SDS011;14353;46.070;13.222;2024-01-25T13:36:00;9.73;;;3.80;;
23376;SDS011;14353;46.070;13.222;2024-01-25T13:38:26;12.48;;;4.30;;
23376;SDS011;14353;46.070;13.222;2024-01-25T13:40:51;15.70;;;5.50;;
23376;SDS011;14353;46.070;13.222;2024-01-25T13:43:17;12.73;;;4.72;;
23376;SDS011;14353;46.070;13.222;2024-01-25T13:45:43;9.40;;;4.50;;
23376;SDS011;14353;46.070;13.222;2024-01-25T13:48:09;19.70;;;4.90;;
23376;SDS011;14353;46.070;13.222;2024-01-25T13:50:34;13.88;;;5.45;;
23376;SDS011;14353;46.070;13.222;2024-01-25T13:53:00;14.02;;;4.75;;
23376;SDS011;14353;46.070;13.222;2024-01-25T13:55:26;11.13;;;4.13;;
23376;SDS011;14353;46.070;13.222;2024-01-25T13:57:51;9.85;;;4.25;;
23376;SDS011;14353;46.070;13.222;2024-01-25T14:00:17;11.88;;;4.93;;
23376;SDS011;14353;46.070;13.222;2024-01-25T14:02:43;11.68;;;4.55;;
23376;SDS011;14353;46.070;13.222;2024-01-25T14:05:10;18.17;;;5.30;;
23376;SDS011;14353;46.070;13.222;2024-01-25T14:07:37;12.68;;;4.95;;
23376;SDS011;14353;46.070;13.222;2024-01-25T14:10:03;19.30;;;5.43;;
23376;SDS011;14353;46.070;13.222;2024-01-25T14:12:29;16.48;;;5.00;;
23376;SDS011;14353;46.070;13.222;2024-01-25T14:14:54;13.38;;;5.00;;
23376;SDS011;14353;46.070;13.222;2024-01-25T14:17:20;18.55;;;5.65;;
23376;SDS011;14353;46.070;13.222;2024-01-25T14:19:46;18.70;;;4.90;;
23376;SDS011;14353;46.070;13.222;2024-01-25T14:22:13;14.80;;;4.53;;
23376;SDS011;14353;46.070;13.222;2024-01-25T14:24:39;17.40;;;5.25;;